createdAt,value
2023-04-25T00:01:36.960Z,8.31
2023-04-25T00:04:03.848Z,8.34
2023-04-25T00:06:32.650Z,8.37
2023-04-25T00:08:59.051Z,8.37
2023-04-25T00:11:25.609Z,8.37
2023-04-25T00:13:52.039Z,8.38
2023-04-25T00:16:18.538Z,8.41
2023-04-25T00:18:47.222Z,8.38
2023-04-25T00:21:13.649Z,8.43
2023-04-25T00:23:40.426Z,8.45
2023-04-25T00:26:06.792Z,8.39
2023-04-25T00:28:33.188Z,8.38
2023-04-25T00:30:59.618Z,8.37
2023-04-25T00:33:26.121Z,8.30
2023-04-25T00:35:52.655Z,8.33
2023-04-25T00:38:19.018Z,8.29
2023-04-25T00:40:45.388Z,8.25
2023-04-25T00:43:11.762Z,8.23
2023-04-25T00:45:39.962Z,8.24
2023-04-25T00:48:06.626Z,8.21
2023-04-25T00:50:34.741Z,8.17
2023-04-25T00:53:01.518Z,8.15
2023-04-25T00:55:28.520Z,8.13
2023-04-25T00:57:54.935Z,8.07
2023-04-25T01:00:21.705Z,8.04
2023-04-25T01:02:48.431Z,7.98
2023-04-25T01:05:15.162Z,7.97
2023-04-25T01:07:42.060Z,7.89
2023-04-25T01:10:09.025Z,7.90
2023-04-25T01:12:36.118Z,7.91
2023-04-25T01:15:02.606Z,7.89
2023-04-25T01:17:30.239Z,7.83
2023-04-25T01:19:56.787Z,7.80
2023-04-25T01:22:23.398Z,7.81
2023-04-25T01:24:49.847Z,7.81
2023-04-25T01:27:16.741Z,7.81
2023-04-25T01:29:43.544Z,7.81
2023-04-25T01:32:10.861Z,7.84
2023-04-25T01:34:37.329Z,7.85
2023-04-25T01:37:03.750Z,7.86
2023-04-25T01:39:30.457Z,7.89
2023-04-25T01:41:57.584Z,7.86
2023-04-25T01:44:24.114Z,7.86
2023-04-25T01:46:50.497Z,7.81
2023-04-25T01:49:16.912Z,7.83
2023-04-25T01:51:43.586Z,7.81
2023-04-25T01:54:11.227Z,7.82
2023-04-25T01:56:40.440Z,7.82
2023-04-25T01:59:07.139Z,7.81
2023-04-25T02:01:33.767Z,7.82
2023-04-25T02:04:00.536Z,7.80
2023-04-25T02:06:27.147Z,7.78
2023-04-25T02:08:53.578Z,7.74
2023-04-25T02:11:19.943Z,7.73
2023-04-25T02:13:46.296Z,7.68
2023-04-25T02:16:12.720Z,7.66
2023-04-25T02:18:40.099Z,7.62
2023-04-25T02:21:06.547Z,7.58
2023-04-25T02:23:33.030Z,7.55
2023-04-25T02:25:59.528Z,7.53
2023-04-25T02:28:26.860Z,7.51
2023-04-25T02:30:53.567Z,7.51
2023-04-25T02:33:21.867Z,7.50
2023-04-25T02:35:48.281Z,7.51
2023-04-25T02:38:14.750Z,7.45
2023-04-25T02:40:41.703Z,7.41
2023-04-25T02:43:08.415Z,7.39
2023-04-25T02:45:34.838Z,7.43
2023-04-25T02:48:01.254Z,7.43
2023-04-25T02:50:27.710Z,7.46
2023-04-25T02:52:54.083Z,7.47
2023-04-25T02:55:20.692Z,7.46
2023-04-25T02:57:47.129Z,7.52
2023-04-25T03:00:15.214Z,7.54
2023-04-25T03:02:41.723Z,7.56
2023-04-25T03:05:08.242Z,7.54
2023-04-25T03:07:34.674Z,7.54
2023-04-25T03:10:01.099Z,7.53
2023-04-25T03:12:27.502Z,7.55
2023-04-25T03:14:53.918Z,7.53
2023-04-25T03:17:20.340Z,7.53
2023-04-25T03:19:46.818Z,7.50
2023-04-25T03:22:13.197Z,7.41
2023-04-25T03:24:39.794Z,7.31
2023-04-25T03:27:06.155Z,7.31
2023-04-25T03:29:32.550Z,7.31
2023-04-25T03:31:58.997Z,7.28
2023-04-25T03:34:25.452Z,7.24
2023-04-25T03:36:51.859Z,7.24
2023-04-25T03:39:18.272Z,7.26
2023-04-25T03:41:44.729Z,7.26
2023-04-25T03:44:11.171Z,7.26
2023-04-25T03:46:37.535Z,7.27
2023-04-25T03:49:03.952Z,7.28
2023-04-25T03:51:30.816Z,7.31
2023-04-25T03:53:57.293Z,7.31
2023-04-25T03:56:23.670Z,7.32
2023-04-25T03:58:50.253Z,7.36
2023-04-25T04:01:16.642Z,7.36
2023-04-25T04:03:43.169Z,7.38
2023-04-25T04:06:10.037Z,7.38
2023-04-25T04:08:36.530Z,7.42
2023-04-25T04:11:03.102Z,7.45
2023-04-25T04:13:30.114Z,7.44
2023-04-25T04:15:56.643Z,7.45
2023-04-25T04:18:23.026Z,7.46
2023-04-25T04:20:49.421Z,7.50
2023-04-25T04:23:15.834Z,7.52
2023-04-25T04:25:42.794Z,7.57
2023-04-25T04:28:09.253Z,7.59
2023-04-25T04:30:37.276Z,7.59
2023-04-25T04:33:04.469Z,7.58
2023-04-25T04:35:31.239Z,7.61
2023-04-25T04:37:57.614Z,7.63
2023-04-25T04:40:23.981Z,7.66
2023-04-25T04:42:50.471Z,7.69
2023-04-25T04:45:17.118Z,7.65
2023-04-25T04:47:43.993Z,7.65
2023-04-25T04:50:11.071Z,7.67
2023-04-25T04:52:38.583Z,7.71
2023-04-25T04:55:06.408Z,7.69
2023-04-25T04:57:33.792Z,7.72
2023-04-25T05:00:00.574Z,7.72
2023-04-25T05:02:27.360Z,7.72
2023-04-25T05:04:53.980Z,7.73
2023-04-25T05:07:20.510Z,7.75
2023-04-25T05:09:46.875Z,7.73
2023-04-25T05:12:13.339Z,7.75
2023-04-25T05:14:39.706Z,7.79
2023-04-25T05:17:09.293Z,7.83
2023-04-25T05:19:35.847Z,7.84
2023-04-25T05:22:03.464Z,7.87
2023-04-25T05:24:30.070Z,7.87
2023-04-25T05:26:56.491Z,7.89
2023-04-25T05:29:22.869Z,7.93
2023-04-25T05:31:49.405Z,7.94
2023-04-25T05:34:16.272Z,7.98
2023-04-25T05:36:42.666Z,8.07
2023-04-25T05:39:09.897Z,8.13
2023-04-25T05:41:36.299Z,8.18
2023-04-25T05:44:03.336Z,8.24
2023-04-25T05:46:29.957Z,8.33
2023-04-25T05:48:56.444Z,8.36
2023-04-25T05:51:22.898Z,8.40
2023-04-25T05:53:49.413Z,8.38
2023-04-25T05:56:15.925Z,8.38
2023-04-25T05:58:42.389Z,8.40
2023-04-25T06:01:09.838Z,8.39
2023-04-25T06:03:36.591Z,8.29
2023-04-25T06:06:03.358Z,8.31
2023-04-25T06:08:29.869Z,8.28
2023-04-25T06:10:56.329Z,8.30
2023-04-25T06:13:22.711Z,8.26
2023-04-25T06:15:49.150Z,8.31
2023-04-25T06:18:15.816Z,8.34
2023-04-25T06:20:42.219Z,8.43
2023-04-25T06:23:08.633Z,8.41
2023-04-25T06:25:36.133Z,8.39
2023-04-25T06:28:02.490Z,8.58
2023-04-25T06:30:29.064Z,8.62
2023-04-25T06:32:55.806Z,8.70
2023-04-25T06:35:22.174Z,8.76
2023-04-25T06:37:48.632Z,8.88
2023-04-25T06:40:15.815Z,8.93
2023-04-25T06:42:42.572Z,9.02
2023-04-25T06:45:09.310Z,9.01
2023-04-25T06:47:35.779Z,9.03
2023-04-25T06:50:02.231Z,9.11
2023-04-25T06:52:28.647Z,9.11
2023-04-25T06:54:55.041Z,9.09
2023-04-25T06:57:21.457Z,9.15
2023-04-25T06:59:47.897Z,9.19
2023-04-25T07:02:14.388Z,9.11
2023-04-25T07:04:41.151Z,9.15
2023-04-25T07:07:10.040Z,9.16
2023-04-25T07:09:36.601Z,9.15
2023-04-25T07:12:03.485Z,9.12
2023-04-25T07:14:29.871Z,9.23
2023-04-25T07:16:57.956Z,9.31
2023-04-25T07:19:27.385Z,9.40
2023-04-25T07:21:54.241Z,9.42
2023-04-25T07:24:20.661Z,9.43
2023-04-25T07:26:47.089Z,9.31
2023-04-25T07:29:13.532Z,9.21
2023-04-25T07:31:40.363Z,9.14
2023-04-25T07:34:06.933Z,9.07
2023-04-25T07:36:33.382Z,9.12
2023-04-25T07:38:59.961Z,9.20
2023-04-25T07:41:26.413Z,9.34
2023-04-25T07:43:52.876Z,9.58
2023-04-25T07:46:19.370Z,9.83
2023-04-25T07:48:45.829Z,9.88
2023-04-25T07:51:12.256Z,9.95
2023-04-25T07:53:39.536Z,10.01
2023-04-25T07:56:06.269Z,10.77
2023-04-25T07:58:32.709Z,11.98
2023-04-25T08:00:59.144Z,13.14
2023-04-25T08:03:25.844Z,13.87
2023-04-25T08:05:52.522Z,14.41
2023-04-25T08:08:18.955Z,15.02
2023-04-25T08:10:45.543Z,15.23
2023-04-25T08:13:11.946Z,15.42
2023-04-25T08:15:38.694Z,15.89
2023-04-25T08:18:05.196Z,16.01
2023-04-25T08:20:31.769Z,16.13
2023-04-25T08:22:58.229Z,16.33
2023-04-25T08:25:24.659Z,16.83
2023-04-25T08:27:51.128Z,17.18
2023-04-25T08:30:17.556Z,17.22
2023-04-25T08:32:44.027Z,17.22
2023-04-25T08:35:10.543Z,17.23
2023-04-25T08:37:37.325Z,17.47
2023-04-25T08:40:08.063Z,17.63
2023-04-25T08:42:35.853Z,17.37
2023-04-25T08:45:06.196Z,16.92
2023-04-25T08:47:34.528Z,17.05
2023-04-25T08:50:02.034Z,16.42
2023-04-25T08:52:30.791Z,15.15
2023-04-25T08:54:58.123Z,13.90
2023-04-25T08:57:25.025Z,13.01
2023-04-25T08:59:52.845Z,12.38
2023-04-25T09:02:21.806Z,12.06
2023-04-25T09:04:48.594Z,11.52
2023-04-25T09:07:19.329Z,11.15
2023-04-25T09:09:45.730Z,10.89
2023-04-25T09:12:12.245Z,10.75
2023-04-25T09:14:38.638Z,10.67
2023-04-25T09:17:06.356Z,10.57
2023-04-25T09:19:40.277Z,10.50
2023-04-25T09:22:08.618Z,10.49
2023-04-25T09:24:40.340Z,10.60
2023-04-25T09:27:08.704Z,10.70
2023-04-25T09:29:38.438Z,10.69
2023-04-25T09:32:14.031Z,10.90
2023-04-25T09:34:42.894Z,11.11
2023-04-25T09:37:11.156Z,11.41
2023-04-25T09:39:38.620Z,11.99
2023-04-25T09:42:05.968Z,12.52
2023-04-25T09:44:32.907Z,12.88
2023-04-25T09:47:00.194Z,13.26
2023-04-25T09:49:27.756Z,13.46
2023-04-25T09:51:57.864Z,14.00
2023-04-25T09:54:25.353Z,13.98
2023-04-25T09:56:53.495Z,14.15
2023-04-25T09:59:22.662Z,14.53
2023-04-25T10:01:50.112Z,14.66
2023-04-25T10:04:21.672Z,14.59
2023-04-25T10:06:50.333Z,14.43
2023-04-25T10:09:18.875Z,14.47
2023-04-25T10:11:46.642Z,14.55
2023-04-25T10:14:13.974Z,14.64
2023-04-25T10:16:41.292Z,14.48
2023-04-25T10:19:08.244Z,14.25
2023-04-25T10:21:35.257Z,14.04
2023-04-25T10:24:01.649Z,13.95
2023-04-25T10:26:30.063Z,13.70
2023-04-25T10:28:59.419Z,13.47
2023-04-25T10:31:25.914Z,13.14
2023-04-25T10:33:52.743Z,12.79
2023-04-25T10:36:21.883Z,12.58
2023-04-25T10:38:49.606Z,12.48
2023-04-25T10:41:16.141Z,12.34
2023-04-25T10:43:44.449Z,12.06
2023-04-25T10:46:28.635Z,11.94
2023-04-25T10:48:59.757Z,11.78
2023-04-25T10:51:30.805Z,11.73
2023-04-25T10:54:06.527Z,11.80
2023-04-25T10:56:45.176Z,11.89
2023-04-25T10:59:19.584Z,11.99
2023-04-25T11:01:47.959Z,11.95
2023-04-25T11:04:41.705Z,11.76
2023-04-25T11:07:21.182Z,11.69
2023-04-25T11:09:47.940Z,11.85
2023-04-25T11:12:14.792Z,12.10
2023-04-25T11:17:12.948Z,12.12
2023-04-25T11:19:39.511Z,12.03
2023-04-25T11:22:06.963Z,12.06
2023-04-25T11:24:37.708Z,12.37
2023-04-25T11:27:05.030Z,12.51
2023-04-25T11:29:33.108Z,12.68
2023-04-25T11:31:59.875Z,12.84
2023-04-25T11:34:31.779Z,12.97
2023-04-25T11:36:58.392Z,13.24
2023-04-25T11:39:25.870Z,13.57
2023-04-25T11:41:52.948Z,13.61
2023-04-25T11:44:20.483Z,13.65
2023-04-25T11:46:47.543Z,13.68
2023-04-25T11:49:14.889Z,13.73
2023-04-25T11:51:44.577Z,13.85
2023-04-25T11:54:12.617Z,13.87
2023-04-25T11:56:43.204Z,13.71
2023-04-25T11:59:09.923Z,13.80
2023-04-25T12:01:37.872Z,14.04
2023-04-25T12:04:14.531Z,14.27
2023-04-25T12:06:42.580Z,14.16
2023-04-25T12:09:11.506Z,14.41
2023-04-25T12:11:48.146Z,14.55
2023-04-25T12:14:28.533Z,14.53
2023-04-25T12:17:00.960Z,14.10
2023-04-25T12:19:31.955Z,14.07
2023-04-25T12:21:59.398Z,14.28
2023-04-25T12:24:28.261Z,14.36
2023-04-25T12:27:06.000Z,14.22
2023-04-25T12:29:48.739Z,13.73
2023-04-25T12:32:16.592Z,13.32
2023-04-25T12:34:43.140Z,12.92
2023-04-25T12:37:09.538Z,12.49
2023-04-25T12:39:36.039Z,12.30
2023-04-25T12:42:03.254Z,12.21
2023-04-25T12:44:29.838Z,12.04
2023-04-25T12:46:56.443Z,11.97
2023-04-25T12:49:23.291Z,12.39
2023-04-25T12:51:49.808Z,13.20
2023-04-25T12:54:16.463Z,13.84
2023-04-25T12:56:44.777Z,14.44
2023-04-25T12:59:11.210Z,15.10
2023-04-25T13:01:37.961Z,15.27
2023-04-25T13:04:04.642Z,15.98
2023-04-25T13:06:31.866Z,15.73
2023-04-25T13:08:58.503Z,15.31
2023-04-25T13:11:24.996Z,14.61
2023-04-25T13:13:51.620Z,14.05
2023-04-25T13:16:18.483Z,13.76
2023-04-25T13:18:44.897Z,14.53
2023-04-25T13:21:14.518Z,15.46
2023-04-25T13:23:41.688Z,16.25
2023-04-25T13:26:08.108Z,16.73
2023-04-25T13:28:34.465Z,16.98
2023-04-25T13:31:00.942Z,17.23
2023-04-25T13:33:27.354Z,17.03
2023-04-25T13:35:58.194Z,17.00
2023-04-25T13:38:25.569Z,16.87
2023-04-25T13:40:55.707Z,15.97
2023-04-25T13:43:24.936Z,15.22
2023-04-25T13:45:51.528Z,14.52
2023-04-25T13:48:19.187Z,14.08
2023-04-25T13:50:46.496Z,13.67
2023-04-25T13:53:13.005Z,13.19
2023-04-25T13:55:42.569Z,13.10
2023-04-25T13:58:11.904Z,12.90
2023-04-25T14:00:40.253Z,12.73
2023-04-25T14:03:08.764Z,12.50
2023-04-25T14:05:40.244Z,12.28
2023-04-25T14:08:07.964Z,12.22
2023-04-25T14:10:36.715Z,12.77
2023-04-25T14:13:04.304Z,13.40
2023-04-25T14:15:34.500Z,13.95
2023-04-25T14:18:07.486Z,14.15
2023-04-25T14:20:36.020Z,14.25
2023-04-25T14:23:02.518Z,14.56
2023-04-25T14:25:29.020Z,14.54
2023-04-25T14:27:55.522Z,14.59
2023-04-25T14:30:25.333Z,14.65
2023-04-25T14:32:51.820Z,14.74
2023-04-25T14:35:24.533Z,14.77
2023-04-25T14:37:51.755Z,14.33
2023-04-25T14:40:18.322Z,14.30
2023-04-25T14:42:44.777Z,14.24
2023-04-25T14:45:11.388Z,13.89
2023-04-25T14:47:38.296Z,13.84
2023-04-25T14:50:05.567Z,13.55
2023-04-25T14:52:32.181Z,13.08
2023-04-25T14:55:01.125Z,12.74
2023-04-25T14:57:27.601Z,12.42
2023-04-25T14:59:54.032Z,12.23
2023-04-25T15:02:20.441Z,12.16
2023-04-25T15:04:47.014Z,12.39
2023-04-25T15:07:13.440Z,12.50
2023-04-25T15:09:39.944Z,12.50
2023-04-25T15:12:06.557Z,12.44
2023-04-25T15:14:35.007Z,12.32
2023-04-25T15:17:01.707Z,12.05
2023-04-25T15:19:28.099Z,11.90
2023-04-25T15:21:54.729Z,11.78
2023-04-25T15:24:21.528Z,11.73
2023-04-25T15:26:47.947Z,11.62
2023-04-25T15:29:14.412Z,11.50
2023-04-25T15:31:41.201Z,11.55
2023-04-25T15:34:07.596Z,11.83
2023-04-25T15:36:34.033Z,12.00
2023-04-25T15:39:00.445Z,12.23
2023-04-25T15:41:26.882Z,12.48
2023-04-25T15:43:54.499Z,12.41
2023-04-25T15:46:23.303Z,12.54
2023-04-25T15:48:49.764Z,12.73
2023-04-25T15:51:17.081Z,12.97
2023-04-25T15:53:43.554Z,13.10
2023-04-25T15:56:09.959Z,13.26
2023-04-25T15:58:36.599Z,13.38
2023-04-25T16:01:04.759Z,13.39
2023-04-25T16:03:33.778Z,13.12
2023-04-25T16:06:03.013Z,13.00
2023-04-25T16:08:29.757Z,12.70
2023-04-25T16:10:57.272Z,12.48
2023-04-25T16:13:23.710Z,12.17
2023-04-25T16:15:50.191Z,11.94
2023-04-25T16:18:16.733Z,11.84
2023-04-25T16:20:43.253Z,11.91
2023-04-25T16:23:09.672Z,12.06
2023-04-25T16:25:36.133Z,12.24
2023-04-25T16:28:02.582Z,12.30
2023-04-25T16:30:29.005Z,12.38
2023-04-25T16:32:57.360Z,12.41
2023-04-25T16:35:24.478Z,12.60
2023-04-25T16:37:51.057Z,12.70
2023-04-25T16:40:17.509Z,12.62
2023-04-25T16:42:43.898Z,12.52
2023-04-25T16:45:10.926Z,12.33
2023-04-25T16:47:37.357Z,12.13
2023-04-25T16:50:04.325Z,11.98
2023-04-25T16:52:31.554Z,11.91
2023-04-25T16:54:57.979Z,11.74
2023-04-25T16:57:25.844Z,11.60
2023-04-25T16:59:52.231Z,11.55
2023-04-25T17:02:18.735Z,11.43
2023-04-25T17:04:45.207Z,11.49
2023-04-25T17:07:11.642Z,11.51
2023-04-25T17:09:38.898Z,11.50
2023-04-25T17:12:05.755Z,11.40
2023-04-25T17:14:35.250Z,11.35
2023-04-25T17:17:01.894Z,11.20
2023-04-25T17:19:28.788Z,11.14
2023-04-25T17:21:55.468Z,10.96
2023-04-25T17:24:21.909Z,10.92
2023-04-25T17:26:48.945Z,10.83
2023-04-25T17:29:15.610Z,10.81
2023-04-25T17:31:42.588Z,10.75
2023-04-25T17:34:09.768Z,10.81
2023-04-25T17:36:36.286Z,10.91
2023-04-25T17:39:03.929Z,10.92
2023-04-25T17:41:30.410Z,10.93
2023-04-25T17:43:56.828Z,10.92
2023-04-25T17:46:23.313Z,10.82
2023-04-25T17:48:50.142Z,10.73
2023-04-25T17:51:16.721Z,10.58
2023-04-25T17:53:43.132Z,10.50
2023-04-25T17:56:25.258Z,10.31
2023-04-25T17:58:53.142Z,10.32
2023-04-25T18:01:19.820Z,10.23
2023-04-25T18:03:48.980Z,10.15
2023-04-25T18:06:17.029Z,10.06
2023-04-25T18:08:44.585Z,10.02
2023-04-25T18:11:11.937Z,9.88
2023-04-25T18:13:40.728Z,9.75
2023-04-25T18:16:07.511Z,9.66
2023-04-25T18:18:35.835Z,9.64
2023-04-25T18:21:04.845Z,9.51
2023-04-25T18:23:33.689Z,9.43
2023-04-25T18:26:00.172Z,9.37
2023-04-25T18:28:26.588Z,9.30
2023-04-25T18:30:54.240Z,9.34
2023-04-25T18:33:22.270Z,9.35
2023-04-25T18:35:58.836Z,9.35
2023-04-25T18:41:01.349Z,9.30
2023-04-25T18:43:36.848Z,9.23
2023-04-25T18:46:03.281Z,9.12
2023-04-25T18:48:29.687Z,9.03
2023-04-25T18:50:56.124Z,8.96
2023-04-25T18:53:22.717Z,8.84
2023-04-25T18:55:49.126Z,8.78
2023-04-25T18:58:15.791Z,8.77
2023-04-25T19:00:42.543Z,8.69
2023-04-25T19:03:09.104Z,8.62
2023-04-25T19:05:36.124Z,8.64
2023-04-25T19:08:02.502Z,8.67
2023-04-25T19:10:28.914Z,8.66
2023-04-25T19:12:55.666Z,8.57
2023-04-25T19:15:22.488Z,8.56
2023-04-25T19:17:48.880Z,8.49
2023-04-25T19:20:16.202Z,8.53
2023-04-25T19:22:42.656Z,8.44
2023-04-25T19:25:10.974Z,8.43
2023-04-25T19:27:37.932Z,8.39
2023-04-25T19:30:07.995Z,8.40
2023-04-25T19:32:35.497Z,8.40
2023-04-25T19:35:03.877Z,8.44
2023-04-25T19:37:30.479Z,8.44
2023-04-25T19:39:57.155Z,8.39
2023-04-25T19:42:23.658Z,8.43
2023-04-25T19:44:51.160Z,8.51
2023-04-25T19:47:17.535Z,8.52
2023-04-25T19:49:43.921Z,8.53
2023-04-25T19:52:14.838Z,8.52
2023-04-25T19:54:41.989Z,8.51
2023-04-25T19:57:08.802Z,8.50
2023-04-25T19:59:35.352Z,8.49
2023-04-25T20:02:01.904Z,8.48
2023-04-25T20:04:28.462Z,8.41
2023-04-25T20:06:54.890Z,8.46
2023-04-25T20:09:21.564Z,8.43
2023-04-25T20:11:48.027Z,8.44
2023-04-25T20:14:14.472Z,8.41
2023-04-25T20:16:42.052Z,8.38
2023-04-25T20:19:08.549Z,8.34
2023-04-25T20:21:35.124Z,8.22
2023-04-25T20:24:01.569Z,8.23
2023-04-25T20:26:28.434Z,8.19
2023-04-25T20:28:55.403Z,8.17
2023-04-25T20:31:22.268Z,8.08
2023-04-25T20:33:48.832Z,8.09
2023-04-25T20:36:15.565Z,8.05
2023-04-25T20:38:41.997Z,8.03
2023-04-25T20:41:08.452Z,8.02
2023-04-25T20:43:38.080Z,7.99
2023-04-25T20:46:05.378Z,7.99
2023-04-25T20:48:31.864Z,7.97
2023-04-25T20:51:00.174Z,7.95
2023-04-25T20:53:26.933Z,7.94
2023-04-25T20:55:53.307Z,7.89
2023-04-25T20:58:20.505Z,7.84
2023-04-25T21:00:47.461Z,7.84
2023-04-25T21:03:15.034Z,7.82
2023-04-25T21:05:41.960Z,7.85
2023-04-25T21:08:08.545Z,7.79
2023-04-25T21:10:37.328Z,7.80
2023-04-25T21:13:04.000Z,7.75
2023-04-25T21:15:30.635Z,7.68
2023-04-25T21:17:57.102Z,7.76
2023-04-25T21:20:23.626Z,7.76
2023-04-25T21:22:53.893Z,7.76
2023-04-25T21:25:31.041Z,7.76
2023-04-25T21:27:58.528Z,7.73
2023-04-25T21:30:25.811Z,7.71
2023-04-25T21:32:52.674Z,7.73
2023-04-25T21:35:20.622Z,7.75
2023-04-25T21:37:47.270Z,7.74
2023-04-25T21:40:14.410Z,7.73
2023-04-25T21:42:45.668Z,7.69
2023-04-25T21:45:12.346Z,7.63
2023-04-25T21:47:39.080Z,7.65
2023-04-25T21:50:06.065Z,7.63
2023-04-25T21:52:32.475Z,7.66
2023-04-25T21:54:58.911Z,7.64
2023-04-25T21:57:25.402Z,7.62
2023-04-25T21:59:51.755Z,7.58
2023-04-25T22:02:18.654Z,7.54
2023-04-25T22:04:47.371Z,7.56
2023-04-25T22:07:14.786Z,7.54
2023-04-25T22:09:53.858Z,7.46
2023-04-25T22:12:22.526Z,7.39
2023-04-25T22:14:49.161Z,7.34
2023-04-25T22:17:15.580Z,7.32
2023-04-25T22:19:43.144Z,7.34
2023-04-25T22:22:09.574Z,7.34
2023-04-25T22:24:36.011Z,7.33
2023-04-25T22:27:02.542Z,7.36
2023-04-25T22:29:28.941Z,7.40
2023-04-25T22:31:55.348Z,7.46
2023-04-25T22:34:21.731Z,7.50
2023-04-25T22:36:49.355Z,7.52
2023-04-25T22:39:16.671Z,7.58
2023-04-25T22:41:43.433Z,7.63
2023-04-25T22:44:10.711Z,7.67
2023-04-25T22:46:37.173Z,7.68
2023-04-25T22:49:04.630Z,7.67
2023-04-25T22:51:31.294Z,7.67
2023-04-25T22:53:57.749Z,7.70
2023-04-25T22:56:24.675Z,7.73
2023-04-25T22:58:51.488Z,7.74
2023-04-25T23:01:19.265Z,7.75
2023-04-25T23:03:46.022Z,7.73
2023-04-25T23:06:13.546Z,7.71
2023-04-25T23:08:41.691Z,7.70
2023-04-25T23:11:10.149Z,7.67
2023-04-25T23:13:37.046Z,7.63
2023-04-25T23:16:10.729Z,7.56
2023-04-25T23:18:38.015Z,7.51
2023-04-25T23:21:07.491Z,7.48
2023-04-25T23:23:33.899Z,7.44
2023-04-25T23:26:00.373Z,7.34
2023-04-25T23:28:26.946Z,7.29
2023-04-25T23:30:53.406Z,7.22
2023-04-25T23:33:19.834Z,7.22
2023-04-25T23:35:46.264Z,7.19
2023-04-25T23:38:13.604Z,7.17
2023-04-25T23:40:39.976Z,7.12
2023-04-25T23:43:06.513Z,7.09
2023-04-25T23:45:32.931Z,7.06
2023-04-25T23:47:59.697Z,7.01
2023-04-25T23:50:26.103Z,6.97
2023-04-25T23:52:52.477Z,6.96
2023-04-25T23:55:19.039Z,6.92
2023-04-25T23:57:45.497Z,6.91
